createdAt,value
2022-12-16T00:01:53.675Z,77.30
2022-12-16T00:04:23.443Z,77.70
2022-12-16T00:06:51.767Z,78.33
2022-12-16T00:09:19.878Z,77.37
2022-12-16T00:11:47.929Z,79.83
2022-12-16T00:14:16.061Z,84.80
2022-12-16T00:16:45.633Z,80.07
2022-12-16T00:19:14.034Z,77.70
2022-12-16T00:21:42.150Z,77.83
2022-12-16T00:24:10.250Z,79.70
2022-12-16T00:26:38.459Z,82.67
2022-12-16T00:29:06.690Z,81.87
2022-12-16T00:31:34.891Z,80.07
2022-12-16T00:34:04.542Z,83.60
2022-12-16T00:36:32.510Z,85.40
2022-12-16T00:39:00.699Z,82.60
2022-12-16T00:41:28.835Z,84.13
2022-12-16T00:43:56.944Z,84.13
2022-12-16T00:46:25.342Z,86.30
2022-12-16T00:48:53.466Z,84.63
2022-12-16T00:51:24.778Z,85.70
2022-12-16T00:53:53.115Z,88.63
2022-12-16T00:56:22.198Z,89.97
2022-12-16T00:58:50.469Z,90.63
2022-12-16T01:01:18.771Z,87.90
2022-12-16T01:03:47.140Z,90.30
2022-12-16T01:06:17.695Z,91.23
2022-12-16T01:08:48.907Z,91.87
2022-12-16T01:11:18.481Z,90.80
2022-12-16T01:13:47.250Z,91.90
2022-12-16T01:16:15.596Z,93.47
2022-12-16T01:18:43.984Z,89.07
2022-12-16T01:21:15.162Z,89.57
2022-12-16T01:23:43.204Z,90.00
2022-12-16T01:26:17.862Z,89.50
2022-12-16T01:28:48.340Z,92.83
2022-12-16T01:31:18.215Z,93.17
2022-12-16T01:33:46.624Z,90.70
2022-12-16T01:36:14.946Z,92.80
2022-12-16T01:38:45.043Z,91.23
2022-12-16T01:41:16.124Z,93.20
2022-12-16T01:43:45.965Z,91.00
2022-12-16T01:46:20.330Z,88.67
2022-12-16T01:48:52.189Z,90.13
2022-12-16T01:51:24.906Z,92.17
2022-12-16T01:53:57.106Z,92.57
2022-12-16T01:56:31.223Z,94.97
2022-12-16T01:59:00.541Z,94.17
2022-12-16T02:01:29.113Z,96.87
2022-12-16T02:04:01.907Z,98.07
2022-12-16T02:06:30.808Z,94.40
2022-12-16T02:09:01.196Z,94.33
2022-12-16T02:12:01.453Z,95.40
2022-12-16T02:14:55.182Z,92.50
2022-12-16T02:17:29.420Z,93.03
2022-12-16T02:20:29.047Z,92.13
2022-12-16T02:23:14.185Z,91.77
2022-12-16T02:26:15.893Z,90.70
2022-12-16T02:29:16.088Z,90.30
2022-12-16T02:31:53.747Z,90.13
2022-12-16T02:34:30.562Z,89.03
2022-12-16T02:37:12.688Z,87.33
2022-12-16T02:39:43.929Z,89.53
2022-12-16T02:42:17.616Z,88.63
2022-12-16T02:44:54.421Z,89.17
2022-12-16T02:47:24.591Z,90.03
2022-12-16T02:49:55.089Z,91.00
2022-12-16T02:52:25.681Z,89.00
2022-12-16T02:54:58.709Z,92.30
2022-12-16T02:57:54.061Z,95.30
2022-12-16T03:00:23.805Z,92.10
2022-12-16T03:02:58.661Z,91.03
2022-12-16T03:05:31.388Z,90.87
2022-12-16T03:08:03.572Z,89.90
2022-12-16T03:10:36.892Z,89.07
2022-12-16T03:13:07.031Z,87.83
2022-12-16T03:15:36.449Z,91.20
2022-12-16T03:18:09.055Z,87.60
2022-12-16T03:20:41.380Z,86.03
2022-12-16T03:23:14.433Z,87.10
2022-12-16T03:25:45.113Z,83.20
2022-12-16T03:28:26.477Z,82.03
2022-12-16T03:31:00.535Z,81.83
2022-12-16T03:33:36.655Z,81.00
2022-12-16T03:36:10.676Z,79.90
2022-12-16T03:38:40.442Z,80.43
2022-12-16T03:41:09.087Z,79.70
2022-12-16T03:43:38.333Z,80.93
2022-12-16T03:46:09.088Z,78.80
2022-12-16T03:48:47.335Z,77.67
2022-12-16T03:51:15.893Z,78.10
2022-12-16T03:53:43.923Z,76.07
2022-12-16T03:56:12.874Z,77.60
2022-12-16T03:58:41.463Z,77.20
2022-12-16T04:01:10.527Z,78.33
2022-12-16T04:03:40.085Z,77.97
2022-12-16T04:06:08.802Z,79.90
2022-12-16T04:08:36.778Z,81.40
2022-12-16T04:11:22.261Z,80.10
2022-12-16T04:14:07.515Z,79.70
2022-12-16T04:16:54.379Z,81.87
2022-12-16T04:19:45.779Z,79.07
2022-12-16T04:22:33.697Z,79.50
2022-12-16T04:25:06.632Z,84.37
2022-12-16T04:27:34.752Z,81.40
2022-12-16T04:30:21.048Z,81.87
2022-12-16T04:33:10.774Z,81.07
2022-12-16T04:35:57.739Z,81.07
2022-12-16T04:38:43.193Z,80.63
2022-12-16T04:41:29.045Z,82.97
2022-12-16T04:44:14.885Z,83.70
2022-12-16T04:47:00.892Z,84.70
2022-12-16T04:49:46.299Z,82.17
2022-12-16T04:52:33.892Z,82.03
2022-12-16T04:55:19.338Z,89.10
2022-12-16T04:58:07.391Z,85.80
2022-12-16T05:00:53.075Z,87.50
2022-12-16T05:03:38.607Z,85.03
2022-12-16T05:06:24.459Z,87.00
2022-12-16T05:09:11.415Z,87.00
2022-12-16T05:11:56.801Z,91.33
2022-12-16T05:14:42.189Z,89.10
2022-12-16T05:17:27.359Z,89.70
2022-12-16T05:20:09.338Z,88.37
2022-12-16T05:22:54.730Z,87.83
2022-12-16T05:25:41.461Z,86.37
2022-12-16T05:28:27.099Z,86.23
2022-12-16T05:31:12.459Z,88.30
2022-12-16T05:33:58.366Z,88.03
2022-12-16T05:36:43.727Z,85.03
2022-12-16T05:39:29.311Z,86.97
2022-12-16T05:42:16.426Z,85.70
2022-12-16T05:45:04.098Z,90.20
2022-12-16T05:47:49.462Z,90.43
2022-12-16T05:50:35.405Z,86.07
2022-12-16T05:53:20.864Z,85.33
2022-12-16T05:56:06.371Z,85.57
2022-12-16T05:58:53.216Z,85.60
2022-12-16T06:01:38.701Z,82.57
2022-12-16T06:04:24.639Z,83.87
2022-12-16T06:07:10.411Z,83.17
2022-12-16T06:09:57.040Z,75.97
2022-12-16T06:12:51.139Z,79.27
2022-12-16T06:15:38.048Z,78.47
2022-12-16T06:18:23.565Z,74.47
2022-12-16T06:21:09.062Z,77.10
2022-12-16T06:23:54.641Z,75.90
2022-12-16T06:26:39.978Z,76.27
2022-12-16T06:29:27.667Z,74.33
2022-12-16T06:32:14.568Z,73.10
2022-12-16T06:34:59.974Z,73.77
2022-12-16T06:37:45.570Z,74.93
2022-12-16T06:40:31.044Z,71.83
2022-12-16T06:43:16.604Z,75.70
2022-12-16T06:46:02.659Z,72.47
2022-12-16T06:48:49.785Z,69.13
2022-12-16T06:51:35.233Z,70.30
2022-12-16T06:54:20.549Z,70.87
2022-12-16T06:57:06.275Z,65.97
2022-12-16T06:59:51.881Z,67.83
2022-12-16T07:02:37.410Z,70.93
2022-12-16T07:05:25.275Z,71.70
2022-12-16T07:08:11.406Z,69.10
2022-12-16T07:11:09.002Z,66.17
2022-12-16T07:14:01.246Z,65.40
2022-12-16T07:17:01.231Z,66.30
2022-12-16T07:19:47.749Z,62.73
2022-12-16T07:22:34.872Z,66.80
2022-12-16T07:25:20.367Z,64.23
2022-12-16T07:28:08.323Z,68.10
2022-12-16T07:30:59.876Z,66.27
2022-12-16T07:33:45.374Z,68.33
2022-12-16T07:36:30.773Z,64.67
2022-12-16T07:39:17.555Z,66.30
2022-12-16T07:42:03.109Z,61.83
2022-12-16T07:44:48.435Z,62.07
2022-12-16T07:47:33.919Z,64.10
2022-12-16T07:50:19.209Z,63.50
2022-12-16T07:53:04.699Z,64.10
2022-12-16T07:55:51.470Z,68.80
2022-12-16T07:58:38.443Z,64.17
2022-12-16T08:01:24.369Z,63.10
2022-12-16T08:04:09.813Z,63.70
2022-12-16T08:06:57.513Z,66.37
2022-12-16T08:09:42.993Z,73.33
2022-12-16T08:12:30.089Z,67.63
2022-12-16T08:15:15.709Z,69.93
2022-12-16T08:18:06.614Z,69.70
2022-12-16T08:20:52.108Z,70.47
2022-12-16T08:23:41.243Z,71.20
2022-12-16T08:26:27.119Z,71.30
2022-12-16T08:29:42.602Z,71.50
2022-12-16T08:32:19.309Z,70.00
2022-12-16T08:35:04.651Z,70.40
2022-12-16T08:37:49.995Z,69.47
2022-12-16T08:40:35.665Z,67.77
2022-12-16T08:43:22.402Z,69.50
2022-12-16T08:46:11.944Z,71.47
2022-12-16T08:48:57.947Z,71.20
2022-12-16T08:51:43.340Z,73.47
2022-12-16T08:54:28.938Z,78.13
2022-12-16T08:57:14.229Z,78.07
2022-12-16T08:59:59.658Z,80.60
2022-12-16T09:02:46.735Z,80.50
2022-12-16T09:05:32.469Z,83.90
2022-12-16T09:08:18.975Z,78.20
2022-12-16T09:11:19.229Z,79.80
2022-12-16T09:14:05.034Z,76.70
2022-12-16T09:16:50.750Z,75.50
2022-12-16T09:19:38.305Z,85.03
2022-12-16T09:22:23.801Z,87.80
2022-12-16T09:25:14.487Z,85.60
2022-12-16T09:27:59.934Z,86.50
2022-12-16T09:30:45.331Z,86.03
2022-12-16T09:33:31.419Z,86.23
2022-12-16T09:36:18.656Z,87.83
2022-12-16T09:39:04.114Z,85.23
2022-12-16T09:42:01.155Z,89.10
2022-12-16T09:44:59.547Z,84.97
2022-12-16T09:47:53.641Z,94.00
2022-12-16T09:50:43.131Z,88.70
2022-12-16T09:53:33.766Z,92.20
2022-12-16T09:56:21.388Z,91.50
2022-12-16T09:59:12.392Z,93.07
2022-12-16T10:01:58.886Z,92.20
2022-12-16T10:04:45.323Z,95.50
2022-12-16T10:07:36.362Z,96.03
2022-12-16T10:10:35.862Z,95.87
2022-12-16T10:13:31.228Z,96.97
2022-12-16T10:16:26.660Z,91.00
2022-12-16T10:19:20.066Z,94.13
2022-12-16T10:22:16.136Z,93.40
2022-12-16T10:25:14.148Z,95.17
2022-12-16T10:28:03.688Z,94.93
2022-12-16T10:30:50.667Z,98.73
2022-12-16T10:33:38.837Z,100.07
2022-12-16T10:36:29.858Z,98.63
2022-12-16T10:39:19.704Z,99.80
2022-12-16T10:42:10.106Z,97.87
2022-12-16T10:45:07.971Z,98.83
2022-12-16T10:47:54.308Z,99.10
2022-12-16T10:50:40.653Z,98.10
2022-12-16T10:53:32.883Z,96.97
2022-12-16T10:56:32.656Z,98.87
2022-12-16T10:59:22.046Z,98.60
2022-12-16T11:02:17.963Z,100.03
2022-12-16T11:05:04.164Z,97.77
2022-12-16T11:07:52.631Z,97.93
2022-12-16T11:10:51.355Z,98.97
2022-12-16T11:13:43.335Z,97.13
2022-12-16T11:16:34.405Z,96.30
2022-12-16T11:19:21.652Z,96.67
2022-12-16T11:22:07.553Z,93.90
2022-12-16T11:24:54.170Z,92.90
2022-12-16T11:27:44.129Z,92.37
2022-12-16T11:30:37.170Z,89.60
2022-12-16T11:33:31.046Z,90.07
2022-12-16T11:36:29.289Z,89.47
2022-12-16T11:39:15.280Z,89.70
2022-12-16T11:42:03.563Z,89.77
2022-12-16T11:44:54.395Z,87.80
2022-12-16T11:47:50.008Z,88.67
2022-12-16T11:50:37.328Z,87.23
2022-12-16T11:53:44.404Z,89.90
2022-12-16T11:56:33.830Z,89.67
2022-12-16T11:59:29.496Z,86.20
2022-12-16T12:02:18.911Z,87.47
2022-12-16T12:05:07.714Z,88.43
2022-12-16T12:08:02.047Z,86.90
2022-12-16T12:11:19.258Z,85.50
2022-12-16T12:14:12.251Z,87.73
2022-12-16T12:17:10.880Z,87.07
2022-12-16T12:20:03.237Z,86.03
2022-12-16T12:22:54.194Z,85.27
2022-12-16T12:25:46.766Z,87.37
2022-12-16T12:28:45.903Z,87.20
2022-12-16T12:31:45.116Z,85.43
2022-12-16T12:34:39.479Z,82.27
2022-12-16T12:37:30.929Z,83.53
2022-12-16T12:40:27.983Z,88.00
2022-12-16T12:43:14.696Z,85.33
2022-12-16T12:46:13.842Z,87.60
2022-12-16T12:49:05.939Z,87.30
2022-12-16T12:52:01.501Z,86.47
2022-12-16T12:54:55.206Z,82.77
2022-12-16T12:57:44.758Z,83.00
2022-12-16T13:00:36.191Z,82.73
2022-12-16T13:03:32.364Z,77.93
2022-12-16T13:06:19.635Z,79.30
2022-12-16T13:09:14.652Z,76.37
2022-12-16T13:12:55.101Z,77.13
2022-12-16T13:15:54.108Z,75.90
2022-12-16T13:18:50.718Z,69.07
2022-12-16T13:22:18.095Z,68.37
2022-12-16T13:25:07.782Z,68.17
2022-12-16T13:28:11.359Z,64.90
2022-12-16T13:30:56.794Z,63.20
2022-12-16T13:33:45.752Z,61.17
2022-12-16T13:36:46.891Z,59.07
2022-12-16T13:39:44.804Z,58.37
2022-12-16T13:43:09.575Z,55.37
2022-12-16T13:45:58.383Z,55.53
2022-12-16T13:48:59.450Z,52.47
2022-12-16T13:52:37.100Z,54.77
2022-12-16T13:55:33.311Z,51.87
2022-12-16T13:58:24.169Z,50.13
2022-12-16T14:01:25.783Z,51.97
2022-12-16T14:04:12.763Z,53.77
2022-12-16T14:06:59.396Z,55.80
2022-12-16T14:09:52.580Z,56.20
2022-12-16T14:13:01.490Z,56.40
2022-12-16T14:15:52.653Z,57.33
2022-12-16T14:18:49.799Z,55.87
2022-12-16T14:21:42.956Z,56.53
2022-12-16T14:24:37.311Z,57.10
2022-12-16T14:27:30.139Z,57.67
2022-12-16T14:30:17.611Z,59.40
2022-12-16T14:33:03.280Z,59.97
2022-12-16T14:35:48.866Z,59.90
2022-12-16T14:38:46.130Z,60.70
2022-12-16T14:41:34.343Z,61.10
2022-12-16T14:44:21.635Z,60.20
2022-12-16T14:47:11.231Z,61.03
2022-12-16T14:50:08.884Z,60.47
2022-12-16T14:53:05.883Z,60.53
2022-12-16T14:55:53.780Z,59.50
2022-12-16T14:58:41.317Z,61.00
2022-12-16T15:01:32.968Z,62.37
2022-12-16T15:04:23.193Z,60.60
2022-12-16T15:07:11.705Z,59.67
2022-12-16T15:10:00.251Z,61.00
2022-12-16T15:12:51.330Z,59.87
2022-12-16T15:15:52.150Z,63.27
2022-12-16T15:18:42.983Z,63.57
2022-12-16T15:21:30.033Z,62.57
2022-12-16T15:24:21.965Z,64.67
2022-12-16T15:27:12.823Z,67.87
2022-12-16T15:30:00.452Z,68.57
2022-12-16T15:32:50.948Z,68.27
2022-12-16T15:35:44.393Z,74.03
2022-12-16T15:38:42.168Z,68.93
2022-12-16T15:41:39.836Z,68.53
2022-12-16T15:44:33.323Z,69.37
2022-12-16T15:47:18.949Z,70.20
2022-12-16T15:50:06.272Z,66.73
2022-12-16T15:52:56.529Z,69.87
2022-12-16T15:55:49.893Z,69.23
2022-12-16T15:58:53.062Z,66.53
2022-12-16T16:01:41.620Z,68.37
2022-12-16T16:04:39.476Z,70.60
2022-12-16T16:07:34.351Z,71.70
2022-12-16T16:10:32.728Z,70.97
2022-12-16T16:13:19.831Z,66.87
2022-12-16T16:16:14.814Z,67.10
2022-12-16T16:19:01.812Z,68.67
2022-12-16T16:21:48.160Z,68.27
2022-12-16T16:24:33.953Z,68.50
2022-12-16T16:27:21.600Z,68.93
2022-12-16T16:30:09.007Z,66.73
2022-12-16T16:32:54.875Z,67.70
2022-12-16T16:35:40.651Z,68.20
2022-12-16T16:38:31.762Z,66.07
2022-12-16T16:41:17.307Z,67.27
2022-12-16T16:44:03.363Z,67.70
2022-12-16T16:46:56.644Z,66.30
2022-12-16T16:49:48.764Z,66.13
2022-12-16T16:52:37.015Z,66.23
2022-12-16T16:55:24.191Z,66.77
2022-12-16T16:58:10.337Z,63.87
2022-12-16T17:01:11.191Z,64.90
2022-12-16T17:03:58.898Z,63.93
2022-12-16T17:06:44.885Z,63.90
2022-12-16T17:09:45.598Z,65.50
2022-12-16T17:12:37.650Z,63.70
2022-12-16T17:15:35.393Z,63.67
2022-12-16T17:18:22.117Z,63.30
2022-12-16T17:21:09.812Z,61.97
2022-12-16T17:23:56.652Z,63.43
2022-12-16T17:26:43.226Z,64.23
2022-12-16T17:29:36.601Z,61.10
2022-12-16T17:32:25.231Z,63.10
2022-12-16T17:35:11.189Z,62.60
2022-12-16T17:37:58.877Z,62.07
2022-12-16T17:40:41.401Z,63.33
2022-12-16T17:43:27.227Z,63.40
2022-12-16T17:46:17.863Z,63.87
2022-12-16T17:49:18.653Z,61.43
2022-12-16T17:52:05.624Z,63.10
2022-12-16T17:54:52.914Z,62.90
2022-12-16T17:57:38.528Z,63.20
2022-12-16T18:00:25.420Z,63.10
2022-12-16T18:03:11.963Z,60.40
2022-12-16T18:05:58.123Z,57.70
2022-12-16T18:08:43.571Z,58.60
2022-12-16T18:11:34.576Z,58.47
2022-12-16T18:14:22.904Z,58.03
2022-12-16T18:17:09.010Z,55.97
2022-12-16T18:20:09.189Z,56.83
2022-12-16T18:22:55.277Z,56.23
2022-12-16T18:25:37.596Z,54.70
2022-12-16T18:28:24.666Z,55.30
2022-12-16T18:31:10.525Z,54.37
2022-12-16T18:33:56.308Z,56.67
2022-12-16T18:36:42.405Z,56.80
2022-12-16T18:39:28.551Z,51.47
2022-12-16T18:42:14.435Z,48.77
2022-12-16T18:45:02.558Z,49.17
2022-12-16T18:47:48.638Z,47.80
2022-12-16T18:50:37.309Z,46.70
2022-12-16T18:53:24.411Z,46.77
2022-12-16T18:56:18.540Z,49.23
2022-12-16T18:59:04.350Z,50.77
2022-12-16T19:01:51.607Z,53.47
2022-12-16T19:04:37.844Z,56.20
2022-12-16T19:07:24.106Z,56.47
2022-12-16T19:10:10.015Z,57.43
2022-12-16T19:12:56.688Z,59.47
2022-12-16T19:15:42.648Z,58.83
2022-12-16T19:18:30.582Z,64.97
2022-12-16T19:21:16.622Z,60.97
2022-12-16T19:24:02.817Z,67.00
2022-12-16T19:26:49.007Z,62.27
2022-12-16T19:29:35.882Z,62.40
2022-12-16T19:32:21.455Z,64.40
2022-12-16T19:35:08.800Z,62.60
2022-12-16T19:37:54.999Z,62.77
2022-12-16T19:40:42.802Z,65.43
2022-12-16T19:43:25.321Z,65.77
2022-12-16T19:46:12.240Z,65.20
2022-12-16T19:48:58.302Z,65.30
2022-12-16T19:51:46.447Z,68.40
2022-12-16T19:54:32.601Z,66.67
2022-12-16T19:57:18.942Z,65.97
2022-12-16T20:00:07.239Z,62.47
2022-12-16T20:02:53.321Z,64.93
2022-12-16T20:05:39.154Z,64.23
2022-12-16T20:08:26.478Z,64.93
2022-12-16T20:11:12.662Z,66.10
2022-12-16T20:13:58.465Z,67.63
2022-12-16T20:16:44.376Z,67.57
2022-12-16T20:19:30.139Z,71.10
2022-12-16T20:22:16.598Z,70.90
2022-12-16T20:25:04.339Z,67.20
2022-12-16T20:27:50.392Z,62.47
2022-12-16T20:30:36.160Z,62.47
2022-12-16T20:33:22.088Z,62.77
2022-12-16T20:36:14.441Z,61.47
2022-12-16T20:38:59.845Z,58.80
2022-12-16T20:41:47.380Z,60.27
2022-12-16T20:44:33.245Z,59.70
2022-12-16T20:47:18.702Z,58.93
2022-12-16T20:50:04.311Z,63.37
2022-12-16T20:52:49.843Z,64.80
2022-12-16T20:55:35.696Z,63.60
2022-12-16T20:58:22.955Z,60.27
2022-12-16T21:01:10.611Z,62.40
2022-12-16T21:03:56.562Z,58.90
2022-12-16T21:06:42.217Z,60.37
2022-12-16T21:09:27.933Z,60.03
2022-12-16T21:12:13.390Z,61.90
2022-12-16T21:15:00.643Z,60.17
2022-12-16T21:17:46.027Z,60.63
2022-12-16T21:20:31.502Z,59.77
2022-12-16T21:23:18.730Z,60.47
2022-12-16T21:26:04.394Z,57.50
2022-12-16T21:28:50.118Z,58.60
2022-12-16T21:31:37.171Z,57.77
2022-12-16T21:34:24.206Z,60.67
2022-12-16T21:37:10.069Z,61.80
2022-12-16T21:39:55.541Z,60.67
2022-12-16T21:42:44.017Z,62.40
2022-12-16T21:45:30.445Z,65.17
2022-12-16T21:48:16.446Z,65.23
2022-12-16T21:51:01.838Z,65.63
2022-12-16T21:53:47.966Z,66.40
2022-12-16T21:56:34.139Z,65.90
2022-12-16T21:59:20.068Z,65.83
2022-12-16T22:02:05.806Z,66.13
2022-12-16T22:04:53.511Z,69.27
2022-12-16T22:07:39.563Z,70.50
2022-12-16T22:10:25.624Z,74.13
2022-12-16T22:13:11.510Z,72.00
2022-12-16T22:16:09.580Z,74.27
2022-12-16T22:18:56.009Z,74.80
2022-12-16T22:21:48.774Z,66.57
2022-12-16T22:24:34.273Z,65.37
2022-12-16T22:27:20.388Z,60.80
2022-12-16T22:30:06.278Z,59.73
2022-12-16T22:32:52.053Z,58.87
2022-12-16T22:35:37.700Z,58.47
2022-12-16T22:38:24.854Z,59.23
2022-12-16T22:41:13.998Z,59.90
2022-12-16T22:43:59.662Z,59.67
2022-12-16T22:46:42.043Z,61.33
2022-12-16T22:49:27.644Z,59.13
2022-12-16T22:52:13.510Z,58.50
2022-12-16T22:55:00.715Z,60.50
2022-12-16T22:57:46.154Z,63.47
2022-12-16T23:00:33.747Z,64.10
2022-12-16T23:03:19.320Z,61.23
2022-12-16T23:06:05.228Z,59.33
2022-12-16T23:08:50.724Z,61.80
2022-12-16T23:11:41.260Z,63.13
2022-12-16T23:14:26.784Z,61.93
2022-12-16T23:17:12.095Z,64.40
2022-12-16T23:19:57.682Z,60.97
2022-12-16T23:22:43.142Z,60.90
2022-12-16T23:25:28.673Z,60.37
2022-12-16T23:28:15.472Z,60.27
2022-12-16T23:31:01.045Z,60.80
2022-12-16T23:33:46.889Z,60.53
2022-12-16T23:36:32.311Z,62.10
2022-12-16T23:39:26.201Z,62.53
2022-12-16T23:42:11.922Z,64.67
2022-12-16T23:45:00.337Z,64.83
2022-12-16T23:47:45.811Z,61.73
2022-12-16T23:50:31.307Z,63.00
2022-12-16T23:53:23.674Z,62.97
2022-12-16T23:56:09.426Z,64.20
2022-12-16T23:58:56.305Z,69.00
